sensor_id;sensor_type;location;lat;lon;timestamp;P1;durP1;ratioP1;P2;durP2;ratioP2
23260;SDS011;11799;47.740;-3.390;2022-10-30T00:01:13;14.80;;;2.55;;
23260;SDS011;11799;47.740;-3.390;2022-10-30T00:03:39;14.38;;;2.40;;
23260;SDS011;11799;47.740;-3.390;2022-10-30T00:06:04;12.35;;;2.28;;
23260;SDS011;11799;47.740;-3.390;2022-10-30T00:08:30;15.18;;;2.30;;
23260;SDS011;11799;47.740;-3.390;2022-10-30T00:10:56;13.40;;;2.40;;
23260;SDS011;11799;47.740;-3.390;2022-10-30T00:13:21;14.88;;;2.15;;
23260;SDS011;11799;47.740;-3.390;2022-10-30T00:15:51;16.02;;;2.22;;
23260;SDS011;11799;47.740;-3.390;2022-10-30T00:18:18;13.60;;;2.28;;
23260;SDS011;11799;47.740;-3.390;2022-10-30T00:20:44;13.93;;;2.42;;
23260;SDS011;11799;47.740;-3.390;2022-10-30T00:23:10;14.77;;;2.55;;
23260;SDS011;11799;47.740;-3.390;2022-10-30T00:25:36;15.40;;;2.28;;
23260;SDS011;11799;47.740;-3.390;2022-10-30T00:28:03;18.88;;;2.30;;
23260;SDS011;11799;47.740;-3.390;2022-10-30T00:30:29;14.43;;;2.60;;
23260;SDS011;11799;47.740;-3.390;2022-10-30T00:32:55;20.75;;;2.78;;
23260;SDS011;11799;47.740;-3.390;2022-10-30T00:35:21;15.60;;;2.83;;
23260;SDS011;11799;47.740;-3.390;2022-10-30T00:37:46;15.48;;;2.85;;
23260;SDS011;11799;47.740;-3.390;2022-10-30T00:40:15;17.77;;;2.55;;
23260;SDS011;11799;47.740;-3.390;2022-10-30T00:42:42;15.98;;;2.38;;
23260;SDS011;11799;47.740;-3.390;2022-10-30T00:45:11;14.40;;;2.25;;
23260;SDS011;11799;47.740;-3.390;2022-10-30T00:47:40;11.07;;;2.15;;
23260;SDS011;11799;47.740;-3.390;2022-10-30T00:50:15;13.48;;;2.45;;
23260;SDS011;11799;47.740;-3.390;2022-10-30T00:55:20;13.85;;;2.33;;
23260;SDS011;11799;47.740;-3.390;2022-10-30T00:57:50;13.80;;;2.10;;
23260;SDS011;11799;47.740;-3.390;2022-10-30T01:00:18;14.88;;;2.58;;
23260;SDS011;11799;47.740;-3.390;2022-10-30T01:02:46;16.45;;;2.65;;
23260;SDS011;11799;47.740;-3.390;2022-10-30T01:05:13;19.52;;;2.75;;
23260;SDS011;11799;47.740;-3.390;2022-10-30T01:07:41;13.20;;;2.47;;
23260;SDS011;11799;47.740;-3.390;2022-10-30T01:10:07;17.83;;;2.25;;
23260;SDS011;11799;47.740;-3.390;2022-10-30T01:12:33;12.50;;;2.60;;
23260;SDS011;11799;47.740;-3.390;2022-10-30T01:14:59;26.33;;;2.67;;
23260;SDS011;11799;47.740;-3.390;2022-10-30T01:34:19;11.10;;;2.47;;
23260;SDS011;11799;47.740;-3.390;2022-10-30T01:37:30;17.25;;;2.20;;
23260;SDS011;11799;47.740;-3.390;2022-10-30T01:39:55;11.10;;;2.10;;
23260;SDS011;11799;47.740;-3.390;2022-10-30T01:45:05;11.15;;;2.20;;
23260;SDS011;11799;47.740;-3.390;2022-10-30T01:52:56;8.63;;;1.77;;
23260;SDS011;11799;47.740;-3.390;2022-10-30T01:55:34;11.40;;;2.00;;
23260;SDS011;11799;47.740;-3.390;2022-10-30T01:58:17;23.08;;;2.67;;
23260;SDS011;11799;47.740;-3.390;2022-10-30T02:00:50;17.45;;;2.40;;
23260;SDS011;11799;47.740;-3.390;2022-10-30T02:03:19;12.98;;;2.00;;
23260;SDS011;11799;47.740;-3.390;2022-10-30T02:05:50;11.90;;;2.40;;
23260;SDS011;11799;47.740;-3.390;2022-10-30T02:08:17;11.32;;;2.20;;
23260;SDS011;11799;47.740;-3.390;2022-10-30T02:10:45;14.07;;;2.33;;
23260;SDS011;11799;47.740;-3.390;2022-10-30T02:13:13;14.30;;;2.30;;
23260;SDS011;11799;47.740;-3.390;2022-10-30T02:15:40;16.35;;;2.70;;
23260;SDS011;11799;47.740;-3.390;2022-10-30T02:18:07;21.02;;;2.75;;
23260;SDS011;11799;47.740;-3.390;2022-10-30T02:20:33;13.27;;;2.13;;
23260;SDS011;11799;47.740;-3.390;2022-10-30T02:22:59;14.82;;;2.47;;
23260;SDS011;11799;47.740;-3.390;2022-10-30T02:25:30;25.85;;;2.42;;
23260;SDS011;11799;47.740;-3.390;2022-10-30T02:27:57;16.15;;;1.98;;
23260;SDS011;11799;47.740;-3.390;2022-10-30T02:30:25;16.38;;;2.33;;
23260;SDS011;11799;47.740;-3.390;2022-10-30T02:32:51;15.18;;;2.00;;
23260;SDS011;11799;47.740;-3.390;2022-10-30T02:35:17;15.57;;;2.47;;
23260;SDS011;11799;47.740;-3.390;2022-10-30T02:37:43;12.73;;;1.95;;
23260;SDS011;11799;47.740;-3.390;2022-10-30T02:40:11;12.30;;;2.45;;
23260;SDS011;11799;47.740;-3.390;2022-10-30T02:42:37;21.13;;;2.38;;
23260;SDS011;11799;47.740;-3.390;2022-10-30T02:45:02;18.38;;;2.13;;
23260;SDS011;11799;47.740;-3.390;2022-10-30T02:47:28;19.80;;;2.53;;
23260;SDS011;11799;47.740;-3.390;2022-10-30T02:49:54;14.15;;;2.00;;
23260;SDS011;11799;47.740;-3.390;2022-10-30T02:52:19;16.35;;;2.58;;
23260;SDS011;11799;47.740;-3.390;2022-10-30T02:54:45;16.45;;;2.22;;
23260;SDS011;11799;47.740;-3.390;2022-10-30T02:57:11;13.93;;;1.90;;
23260;SDS011;11799;47.740;-3.390;2022-10-30T02:59:37;12.75;;;2.10;;
23260;SDS011;11799;47.740;-3.390;2022-10-30T03:02:02;11.30;;;1.98;;
23260;SDS011;11799;47.740;-3.390;2022-10-30T03:04:28;11.05;;;1.73;;
23260;SDS011;11799;47.740;-3.390;2022-10-30T03:06:54;9.00;;;1.65;;
23260;SDS011;11799;47.740;-3.390;2022-10-30T03:09:21;16.27;;;1.67;;
23260;SDS011;11799;47.740;-3.390;2022-10-30T03:11:47;7.18;;;1.75;;
23260;SDS011;11799;47.740;-3.390;2022-10-30T03:14:13;11.38;;;2.40;;
23260;SDS011;11799;47.740;-3.390;2022-10-30T03:16:38;15.90;;;2.25;;
23260;SDS011;11799;47.740;-3.390;2022-10-30T03:19:04;15.25;;;2.83;;
23260;SDS011;11799;47.740;-3.390;2022-10-30T03:21:31;10.63;;;2.13;;
23260;SDS011;11799;47.740;-3.390;2022-10-30T03:23:57;14.82;;;2.38;;
23260;SDS011;11799;47.740;-3.390;2022-10-30T03:26:23;12.40;;;1.65;;
23260;SDS011;11799;47.740;-3.390;2022-10-30T03:29:09;11.57;;;2.13;;
23260;SDS011;11799;47.740;-3.390;2022-10-30T03:31:34;9.10;;;2.05;;
23260;SDS011;11799;47.740;-3.390;2022-10-30T03:34:17;14.13;;;1.88;;
23260;SDS011;11799;47.740;-3.390;2022-10-30T03:36:42;8.80;;;1.48;;
23260;SDS011;11799;47.740;-3.390;2022-10-30T03:39:09;10.82;;;1.83;;
23260;SDS011;11799;47.740;-3.390;2022-10-30T03:41:35;7.13;;;1.95;;
23260;SDS011;11799;47.740;-3.390;2022-10-30T03:44:01;9.27;;;2.00;;
23260;SDS011;11799;47.740;-3.390;2022-10-30T03:46:26;10.25;;;2.30;;
23260;SDS011;11799;47.740;-3.390;2022-10-30T03:48:58;10.25;;;1.92;;
23260;SDS011;11799;47.740;-3.390;2022-10-30T03:51:24;9.75;;;1.95;;
23260;SDS011;11799;47.740;-3.390;2022-10-30T03:53:49;8.85;;;1.63;;
23260;SDS011;11799;47.740;-3.390;2022-10-30T03:56:15;8.98;;;1.70;;
23260;SDS011;11799;47.740;-3.390;2022-10-30T03:58:45;10.30;;;1.70;;
23260;SDS011;11799;47.740;-3.390;2022-10-30T04:01:12;10.63;;;1.70;;
23260;SDS011;11799;47.740;-3.390;2022-10-30T04:03:41;8.75;;;1.48;;
23260;SDS011;11799;47.740;-3.390;2022-10-30T04:06:07;6.25;;;1.52;;
23260;SDS011;11799;47.740;-3.390;2022-10-30T04:08:33;8.85;;;2.08;;
23260;SDS011;11799;47.740;-3.390;2022-10-30T04:11:00;10.20;;;1.85;;
23260;SDS011;11799;47.740;-3.390;2022-10-30T04:13:26;7.15;;;1.73;;
23260;SDS011;11799;47.740;-3.390;2022-10-30T04:15:52;15.43;;;2.42;;
23260;SDS011;11799;47.740;-3.390;2022-10-30T04:18:21;14.50;;;2.20;;
23260;SDS011;11799;47.740;-3.390;2022-10-30T04:20:47;10.65;;;2.10;;
23260;SDS011;11799;47.740;-3.390;2022-10-30T04:23:14;15.48;;;2.10;;
23260;SDS011;11799;47.740;-3.390;2022-10-30T04:25:42;8.25;;;1.80;;
23260;SDS011;11799;47.740;-3.390;2022-10-30T04:28:09;16.27;;;2.20;;
23260;SDS011;11799;47.740;-3.390;2022-10-30T04:30:36;16.35;;;2.38;;
23260;SDS011;11799;47.740;-3.390;2022-10-30T04:33:03;12.70;;;1.83;;
23260;SDS011;11799;47.740;-3.390;2022-10-30T04:35:32;11.38;;;1.90;;
23260;SDS011;11799;47.740;-3.390;2022-10-30T04:40:32;12.40;;;2.13;;
23260;SDS011;11799;47.740;-3.390;2022-10-30T04:43:02;11.07;;;2.10;;
23260;SDS011;11799;47.740;-3.390;2022-10-30T04:45:29;12.02;;;1.80;;
23260;SDS011;11799;47.740;-3.390;2022-10-30T04:47:59;11.02;;;2.00;;
23260;SDS011;11799;47.740;-3.390;2022-10-30T04:52:59;9.75;;;1.40;;
23260;SDS011;11799;47.740;-3.390;2022-10-30T04:55:26;8.25;;;1.90;;
23260;SDS011;11799;47.740;-3.390;2022-10-30T04:57:56;11.45;;;1.65;;
23260;SDS011;11799;47.740;-3.390;2022-10-30T05:00:23;10.55;;;1.80;;
23260;SDS011;11799;47.740;-3.390;2022-10-30T05:02:49;17.08;;;2.33;;
23260;SDS011;11799;47.740;-3.390;2022-10-30T05:05:15;14.15;;;2.75;;
23260;SDS011;11799;47.740;-3.390;2022-10-30T05:07:40;9.82;;;2.38;;
23260;SDS011;11799;47.740;-3.390;2022-10-30T05:10:07;14.68;;;2.00;;
23260;SDS011;11799;47.740;-3.390;2022-10-30T05:12:36;12.37;;;2.07;;
23260;SDS011;11799;47.740;-3.390;2022-10-30T05:15:01;10.85;;;1.73;;
23260;SDS011;11799;47.740;-3.390;2022-10-30T05:17:27;15.63;;;1.90;;
23260;SDS011;11799;47.740;-3.390;2022-10-30T05:19:54;9.65;;;2.28;;
23260;SDS011;11799;47.740;-3.390;2022-10-30T05:22:20;10.75;;;1.73;;
23260;SDS011;11799;47.740;-3.390;2022-10-30T05:24:46;11.55;;;2.03;;
23260;SDS011;11799;47.740;-3.390;2022-10-30T05:27:12;11.45;;;1.80;;
23260;SDS011;11799;47.740;-3.390;2022-10-30T05:29:38;15.90;;;1.75;;
23260;SDS011;11799;47.740;-3.390;2022-10-30T05:32:04;10.93;;;1.73;;
23260;SDS011;11799;47.740;-3.390;2022-10-30T05:34:41;8.88;;;1.60;;
23260;SDS011;11799;47.740;-3.390;2022-10-30T05:37:07;10.50;;;1.58;;
23260;SDS011;11799;47.740;-3.390;2022-10-30T05:39:33;11.20;;;1.60;;
23260;SDS011;11799;47.740;-3.390;2022-10-30T05:41:59;17.45;;;2.53;;
23260;SDS011;11799;47.740;-3.390;2022-10-30T05:44:36;7.05;;;1.60;;
23260;SDS011;11799;47.740;-3.390;2022-10-30T05:47:02;9.55;;;1.88;;
23260;SDS011;11799;47.740;-3.390;2022-10-30T05:49:31;16.85;;;1.88;;
23260;SDS011;11799;47.740;-3.390;2022-10-30T05:51:58;7.80;;;1.65;;
23260;SDS011;11799;47.740;-3.390;2022-10-30T05:54:23;7.68;;;1.42;;
23260;SDS011;11799;47.740;-3.390;2022-10-30T05:57:11;13.32;;;1.75;;
23260;SDS011;11799;47.740;-3.390;2022-10-30T05:59:38;8.40;;;1.70;;
23260;SDS011;11799;47.740;-3.390;2022-10-30T06:02:03;9.70;;;1.30;;
23260;SDS011;11799;47.740;-3.390;2022-10-30T06:04:29;14.18;;;1.73;;
23260;SDS011;11799;47.740;-3.390;2022-10-30T06:06:55;9.65;;;1.55;;
23260;SDS011;11799;47.740;-3.390;2022-10-30T06:09:20;8.38;;;1.77;;
23260;SDS011;11799;47.740;-3.390;2022-10-30T06:12:12;11.68;;;1.67;;
23260;SDS011;11799;47.740;-3.390;2022-10-30T06:14:56;8.57;;;1.30;;
23260;SDS011;11799;47.740;-3.390;2022-10-30T06:17:22;8.75;;;1.73;;
23260;SDS011;11799;47.740;-3.390;2022-10-30T06:20:06;12.48;;;1.80;;
23260;SDS011;11799;47.740;-3.390;2022-10-30T06:22:59;9.10;;;1.63;;
23260;SDS011;11799;47.740;-3.390;2022-10-30T06:25:36;11.25;;;1.77;;
23260;SDS011;11799;47.740;-3.390;2022-10-30T06:28:12;11.00;;;1.50;;
23260;SDS011;11799;47.740;-3.390;2022-10-30T06:30:39;5.55;;;1.48;;
23260;SDS011;11799;47.740;-3.390;2022-10-30T06:33:05;9.30;;;1.65;;
23260;SDS011;11799;47.740;-3.390;2022-10-30T06:35:33;9.40;;;1.55;;
23260;SDS011;11799;47.740;-3.390;2022-10-30T06:37:59;8.00;;;1.38;;
23260;SDS011;11799;47.740;-3.390;2022-10-30T06:40:26;7.80;;;1.52;;
23260;SDS011;11799;47.740;-3.390;2022-10-30T06:43:14;10.65;;;1.60;;
23260;SDS011;11799;47.740;-3.390;2022-10-30T06:45:43;8.80;;;1.70;;
23260;SDS011;11799;47.740;-3.390;2022-10-30T06:48:10;10.68;;;1.60;;
23260;SDS011;11799;47.740;-3.390;2022-10-30T06:50:40;11.00;;;1.75;;
23260;SDS011;11799;47.740;-3.390;2022-10-30T06:53:06;8.43;;;1.75;;
23260;SDS011;11799;47.740;-3.390;2022-10-30T06:55:32;9.02;;;1.60;;
23260;SDS011;11799;47.740;-3.390;2022-10-30T06:58:18;8.57;;;1.80;;
23260;SDS011;11799;47.740;-3.390;2022-10-30T07:01:05;10.18;;;1.60;;
23260;SDS011;11799;47.740;-3.390;2022-10-30T07:03:49;14.40;;;2.63;;
23260;SDS011;11799;47.740;-3.390;2022-10-30T07:06:15;8.57;;;1.45;;
23260;SDS011;11799;47.740;-3.390;2022-10-30T07:08:40;9.65;;;1.65;;
23260;SDS011;11799;47.740;-3.390;2022-10-30T07:11:06;6.43;;;1.25;;
23260;SDS011;11799;47.740;-3.390;2022-10-30T07:13:40;4.82;;;1.10;;
23260;SDS011;11799;47.740;-3.390;2022-10-30T07:16:26;6.68;;;1.25;;
23260;SDS011;11799;47.740;-3.390;2022-10-30T07:18:52;7.68;;;1.45;;
23260;SDS011;11799;47.740;-3.390;2022-10-30T07:21:18;3.55;;;1.10;;
23260;SDS011;11799;47.740;-3.390;2022-10-30T07:23:43;8.07;;;1.85;;
23260;SDS011;11799;47.740;-3.390;2022-10-30T07:26:21;6.72;;;1.70;;
23260;SDS011;11799;47.740;-3.390;2022-10-30T07:28:46;8.73;;;1.60;;
23260;SDS011;11799;47.740;-3.390;2022-10-30T07:31:18;10.90;;;1.67;;
23260;SDS011;11799;47.740;-3.390;2022-10-30T07:33:49;7.68;;;1.70;;
23260;SDS011;11799;47.740;-3.390;2022-10-30T07:36:53;8.50;;;1.25;;
23260;SDS011;11799;47.740;-3.390;2022-10-30T07:39:24;8.43;;;1.70;;
23260;SDS011;11799;47.740;-3.390;2022-10-30T07:42:05;12.98;;;2.22;;
23260;SDS011;11799;47.740;-3.390;2022-10-30T07:45:06;3.80;;;1.27;;
23260;SDS011;11799;47.740;-3.390;2022-10-30T07:47:51;9.88;;;1.60;;
23260;SDS011;11799;47.740;-3.390;2022-10-30T07:50:32;9.40;;;1.60;;
23260;SDS011;11799;47.740;-3.390;2022-10-30T07:52:58;10.20;;;1.60;;
23260;SDS011;11799;47.740;-3.390;2022-10-30T07:55:26;10.65;;;2.08;;
23260;SDS011;11799;47.740;-3.390;2022-10-30T07:57:51;12.43;;;2.08;;
23260;SDS011;11799;47.740;-3.390;2022-10-30T08:00:35;5.43;;;1.45;;
23260;SDS011;11799;47.740;-3.390;2022-10-30T08:03:14;9.38;;;1.90;;
23260;SDS011;11799;47.740;-3.390;2022-10-30T08:05:48;11.88;;;1.55;;
23260;SDS011;11799;47.740;-3.390;2022-10-30T08:08:19;4.93;;;1.60;;
23260;SDS011;11799;47.740;-3.390;2022-10-30T08:10:51;9.93;;;1.80;;
23260;SDS011;11799;47.740;-3.390;2022-10-30T08:13:17;6.60;;;1.52;;
23260;SDS011;11799;47.740;-3.390;2022-10-30T08:15:42;7.85;;;1.58;;
23260;SDS011;11799;47.740;-3.390;2022-10-30T08:18:08;12.27;;;1.77;;
23260;SDS011;11799;47.740;-3.390;2022-10-30T08:20:36;7.80;;;1.50;;
23260;SDS011;11799;47.740;-3.390;2022-10-30T08:23:02;9.35;;;2.13;;
23260;SDS011;11799;47.740;-3.390;2022-10-30T08:25:28;10.95;;;1.77;;
23260;SDS011;11799;47.740;-3.390;2022-10-30T08:28:02;9.57;;;1.70;;
23260;SDS011;11799;47.740;-3.390;2022-10-30T08:30:36;6.70;;;1.63;;
23260;SDS011;11799;47.740;-3.390;2022-10-30T08:33:04;8.20;;;1.52;;
23260;SDS011;11799;47.740;-3.390;2022-10-30T08:35:47;9.02;;;1.88;;
23260;SDS011;11799;47.740;-3.390;2022-10-30T08:38:14;11.23;;;2.03;;
23260;SDS011;11799;47.740;-3.390;2022-10-30T08:40:42;12.90;;;2.08;;
23260;SDS011;11799;47.740;-3.390;2022-10-30T08:43:08;7.32;;;2.03;;
23260;SDS011;11799;47.740;-3.390;2022-10-30T08:45:34;11.18;;;2.53;;
23260;SDS011;11799;47.740;-3.390;2022-10-30T08:48:12;10.10;;;1.90;;
23260;SDS011;11799;47.740;-3.390;2022-10-30T08:50:41;16.25;;;2.10;;
23260;SDS011;11799;47.740;-3.390;2022-10-30T08:53:09;13.82;;;2.15;;
23260;SDS011;11799;47.740;-3.390;2022-10-30T08:55:36;8.80;;;1.88;;
23260;SDS011;11799;47.740;-3.390;2022-10-30T08:58:05;11.38;;;2.10;;
23260;SDS011;11799;47.740;-3.390;2022-10-30T09:00:31;11.88;;;1.73;;
23260;SDS011;11799;47.740;-3.390;2022-10-30T09:03:09;13.35;;;2.22;;
23260;SDS011;11799;47.740;-3.390;2022-10-30T09:05:53;16.20;;;2.35;;
23260;SDS011;11799;47.740;-3.390;2022-10-30T09:08:41;13.00;;;2.88;;
23260;SDS011;11799;47.740;-3.390;2022-10-30T09:11:21;12.07;;;2.25;;
23260;SDS011;11799;47.740;-3.390;2022-10-30T09:13:47;11.73;;;1.90;;
23260;SDS011;11799;47.740;-3.390;2022-10-30T09:16:13;14.60;;;2.13;;
23260;SDS011;11799;47.740;-3.390;2022-10-30T09:18:38;11.25;;;2.05;;
23260;SDS011;11799;47.740;-3.390;2022-10-30T09:21:04;13.13;;;2.20;;
23260;SDS011;11799;47.740;-3.390;2022-10-30T09:23:32;12.75;;;2.03;;
23260;SDS011;11799;47.740;-3.390;2022-10-30T09:26:20;16.30;;;2.28;;
23260;SDS011;11799;47.740;-3.390;2022-10-30T09:28:54;17.60;;;2.40;;
23260;SDS011;11799;47.740;-3.390;2022-10-30T09:31:38;10.65;;;2.72;;
23260;SDS011;11799;47.740;-3.390;2022-10-30T09:34:07;16.35;;;2.97;;
23260;SDS011;11799;47.740;-3.390;2022-10-30T09:36:41;14.48;;;2.15;;
23260;SDS011;11799;47.740;-3.390;2022-10-30T09:39:11;9.38;;;2.15;;
23260;SDS011;11799;47.740;-3.390;2022-10-30T09:41:42;10.93;;;2.17;;
23260;SDS011;11799;47.740;-3.390;2022-10-30T09:58:32;12.82;;;2.92;;
23260;SDS011;11799;47.740;-3.390;2022-10-30T10:01:21;12.27;;;2.60;;
23260;SDS011;11799;47.740;-3.390;2022-10-30T10:07:01;18.15;;;3.10;;
23260;SDS011;11799;47.740;-3.390;2022-10-30T10:09:56;17.50;;;2.10;;
23260;SDS011;11799;47.740;-3.390;2022-10-30T10:12:48;14.32;;;2.25;;
23260;SDS011;11799;47.740;-3.390;2022-10-30T10:17:44;10.20;;;1.80;;
23260;SDS011;11799;47.740;-3.390;2022-10-30T10:20:13;10.13;;;2.15;;
23260;SDS011;11799;47.740;-3.390;2022-10-30T10:23:02;13.07;;;2.03;;
23260;SDS011;11799;47.740;-3.390;2022-10-30T10:25:36;11.98;;;1.95;;
23260;SDS011;11799;47.740;-3.390;2022-10-30T10:31:05;12.73;;;2.13;;
23260;SDS011;11799;47.740;-3.390;2022-10-30T10:33:41;17.33;;;2.67;;
23260;SDS011;11799;47.740;-3.390;2022-10-30T10:49:39;12.85;;;2.67;;
23260;SDS011;11799;47.740;-3.390;2022-10-30T10:52:12;21.05;;;3.05;;
23260;SDS011;11799;47.740;-3.390;2022-10-30T10:54:56;8.13;;;2.45;;
23260;SDS011;11799;47.740;-3.390;2022-10-30T10:57:30;11.82;;;1.90;;
23260;SDS011;11799;47.740;-3.390;2022-10-30T11:00:01;9.52;;;2.10;;
23260;SDS011;11799;47.740;-3.390;2022-10-30T11:02:36;14.05;;;2.53;;
23260;SDS011;11799;47.740;-3.390;2022-10-30T11:05:29;13.77;;;2.30;;
23260;SDS011;11799;47.740;-3.390;2022-10-30T11:08:09;7.10;;;1.75;;
23260;SDS011;11799;47.740;-3.390;2022-10-30T11:10:41;15.55;;;1.95;;
23260;SDS011;11799;47.740;-3.390;2022-10-30T11:13:10;8.32;;;1.80;;
23260;SDS011;11799;47.740;-3.390;2022-10-30T11:15:54;11.95;;;1.90;;
23260;SDS011;11799;47.740;-3.390;2022-10-30T11:18:33;10.20;;;1.83;;
23260;SDS011;11799;47.740;-3.390;2022-10-30T11:21:03;11.20;;;1.90;;
23260;SDS011;11799;47.740;-3.390;2022-10-30T11:31:16;11.27;;;1.95;;
23260;SDS011;11799;47.740;-3.390;2022-10-30T11:33:47;10.90;;;2.00;;
23260;SDS011;11799;47.740;-3.390;2022-10-30T11:36:15;9.38;;;1.67;;
23260;SDS011;11799;47.740;-3.390;2022-10-30T11:38:43;8.95;;;1.90;;
23260;SDS011;11799;47.740;-3.390;2022-10-30T11:41:08;9.80;;;2.15;;
23260;SDS011;11799;47.740;-3.390;2022-10-30T11:43:35;11.25;;;2.33;;
23260;SDS011;11799;47.740;-3.390;2022-10-30T11:46:03;11.88;;;1.92;;
23260;SDS011;11799;47.740;-3.390;2022-10-30T11:48:33;8.40;;;2.13;;
23260;SDS011;11799;47.740;-3.390;2022-10-30T11:51:03;11.07;;;2.05;;
23260;SDS011;11799;47.740;-3.390;2022-10-30T11:55:59;9.43;;;2.22;;
23260;SDS011;11799;47.740;-3.390;2022-10-30T11:58:28;12.77;;;2.20;;
23260;SDS011;11799;47.740;-3.390;2022-10-30T12:01:01;11.10;;;2.13;;
23260;SDS011;11799;47.740;-3.390;2022-10-30T12:03:34;8.13;;;2.17;;
23260;SDS011;11799;47.740;-3.390;2022-10-30T12:06:18;9.63;;;1.90;;
23260;SDS011;11799;47.740;-3.390;2022-10-30T12:11:26;10.95;;;1.95;;
23260;SDS011;11799;47.740;-3.390;2022-10-30T12:13:54;7.70;;;1.58;;
23260;SDS011;11799;47.740;-3.390;2022-10-30T12:16:20;16.30;;;2.40;;
23260;SDS011;11799;47.740;-3.390;2022-10-30T12:21:18;6.95;;;1.70;;
23260;SDS011;11799;47.740;-3.390;2022-10-30T12:23:49;10.70;;;2.28;;
23260;SDS011;11799;47.740;-3.390;2022-10-30T12:26:18;11.95;;;2.38;;
23260;SDS011;11799;47.740;-3.390;2022-10-30T12:28:50;9.57;;;2.17;;
23260;SDS011;11799;47.740;-3.390;2022-10-30T12:31:25;9.48;;;1.80;;
23260;SDS011;11799;47.740;-3.390;2022-10-30T12:36:36;11.93;;;2.35;;
23260;SDS011;11799;47.740;-3.390;2022-10-30T12:39:21;11.13;;;2.20;;
23260;SDS011;11799;47.740;-3.390;2022-10-30T12:44:29;10.30;;;2.58;;
23260;SDS011;11799;47.740;-3.390;2022-10-30T12:52:14;12.52;;;2.72;;
23260;SDS011;11799;47.740;-3.390;2022-10-30T12:57:25;9.93;;;2.15;;
23260;SDS011;11799;47.740;-3.390;2022-10-30T13:11:10;11.68;;;2.67;;
23260;SDS011;11799;47.740;-3.390;2022-10-30T13:13:42;16.90;;;2.97;;
23260;SDS011;11799;47.740;-3.390;2022-10-30T13:16:12;14.27;;;2.80;;
23260;SDS011;11799;47.740;-3.390;2022-10-30T13:18:42;19.50;;;2.55;;
23260;SDS011;11799;47.740;-3.390;2022-10-30T13:23:47;14.50;;;2.47;;
23260;SDS011;11799;47.740;-3.390;2022-10-30T13:29:43;17.92;;;2.63;;
23260;SDS011;11799;47.740;-3.390;2022-10-30T13:32:36;17.45;;;2.40;;
23260;SDS011;11799;47.740;-3.390;2022-10-30T13:35:23;15.35;;;2.67;;
23260;SDS011;11799;47.740;-3.390;2022-10-30T13:38:15;17.02;;;2.35;;
23260;SDS011;11799;47.740;-3.390;2022-10-30T13:46:30;12.07;;;2.40;;
23260;SDS011;11799;47.740;-3.390;2022-10-30T13:51:54;17.17;;;2.60;;
23260;SDS011;11799;47.740;-3.390;2022-10-30T13:54:23;13.50;;;2.50;;
23260;SDS011;11799;47.740;-3.390;2022-10-30T13:56:53;12.50;;;2.83;;
23260;SDS011;11799;47.740;-3.390;2022-10-30T14:02:10;17.27;;;3.33;;
23260;SDS011;11799;47.740;-3.390;2022-10-30T14:10:48;12.75;;;2.63;;
23260;SDS011;11799;47.740;-3.390;2022-10-30T14:13:12;12.88;;;2.47;;
23260;SDS011;11799;47.740;-3.390;2022-10-30T14:15:44;15.13;;;2.55;;
23260;SDS011;11799;47.740;-3.390;2022-10-30T14:20:55;13.93;;;2.67;;
23260;SDS011;11799;47.740;-3.390;2022-10-30T14:26:33;16.77;;;3.00;;
23260;SDS011;11799;47.740;-3.390;2022-10-30T14:28:35;17.10;;;2.75;;
23260;SDS011;11799;47.740;-3.390;2022-10-30T14:31:06;16.05;;;3.25;;
23260;SDS011;11799;47.740;-3.390;2022-10-30T14:50:12;16.60;;;3.25;;
23260;SDS011;11799;47.740;-3.390;2022-10-30T14:55:54;11.88;;;2.25;;
23260;SDS011;11799;47.740;-3.390;2022-10-30T14:58:27;14.35;;;2.35;;
23260;SDS011;11799;47.740;-3.390;2022-10-30T15:14:45;10.45;;;2.40;;
23260;SDS011;11799;47.740;-3.390;2022-10-30T15:17:31;14.85;;;2.20;;
23260;SDS011;11799;47.740;-3.390;2022-10-30T15:20:02;12.57;;;2.40;;
23260;SDS011;11799;47.740;-3.390;2022-10-30T15:22:31;11.93;;;2.40;;
23260;SDS011;11799;47.740;-3.390;2022-10-30T15:24:59;11.45;;;2.35;;
23260;SDS011;11799;47.740;-3.390;2022-10-30T15:27:27;10.27;;;1.88;;
23260;SDS011;11799;47.740;-3.390;2022-10-30T15:29:54;18.98;;;3.03;;
23260;SDS011;11799;47.740;-3.390;2022-10-30T15:32:24;12.18;;;2.15;;
23260;SDS011;11799;47.740;-3.390;2022-10-30T15:35:00;18.35;;;2.55;;
23260;SDS011;11799;47.740;-3.390;2022-10-30T15:37:30;8.85;;;2.47;;
23260;SDS011;11799;47.740;-3.390;2022-10-30T15:42:54;11.05;;;2.25;;
23260;SDS011;11799;47.740;-3.390;2022-10-30T15:45:23;16.35;;;2.70;;
23260;SDS011;11799;47.740;-3.390;2022-10-30T15:47:57;15.55;;;2.33;;
23260;SDS011;11799;47.740;-3.390;2022-10-30T15:50:29;13.60;;;2.15;;
23260;SDS011;11799;47.740;-3.390;2022-10-30T15:52:56;14.27;;;2.20;;
23260;SDS011;11799;47.740;-3.390;2022-10-30T15:55:27;11.73;;;2.63;;
23260;SDS011;11799;47.740;-3.390;2022-10-30T15:57:55;15.88;;;2.83;;
23260;SDS011;11799;47.740;-3.390;2022-10-30T16:00:24;11.93;;;2.28;;
23260;SDS011;11799;47.740;-3.390;2022-10-30T16:03:16;16.90;;;2.53;;
23260;SDS011;11799;47.740;-3.390;2022-10-30T16:05:42;11.38;;;2.22;;
23260;SDS011;11799;47.740;-3.390;2022-10-30T16:08:13;19.67;;;2.80;;
23260;SDS011;11799;47.740;-3.390;2022-10-30T16:10:43;13.55;;;2.42;;
23260;SDS011;11799;47.740;-3.390;2022-10-30T16:13:17;14.77;;;2.50;;
23260;SDS011;11799;47.740;-3.390;2022-10-30T16:15:46;14.15;;;2.47;;
23260;SDS011;11799;47.740;-3.390;2022-10-30T16:18:14;10.95;;;2.47;;
23260;SDS011;11799;47.740;-3.390;2022-10-30T16:20:41;15.38;;;2.45;;
23260;SDS011;11799;47.740;-3.390;2022-10-30T16:23:09;13.23;;;2.38;;
23260;SDS011;11799;47.740;-3.390;2022-10-30T16:25:36;13.82;;;2.38;;
23260;SDS011;11799;47.740;-3.390;2022-10-30T16:28:03;15.88;;;2.15;;
23260;SDS011;11799;47.740;-3.390;2022-10-30T16:30:30;12.32;;;2.60;;
23260;SDS011;11799;47.740;-3.390;2022-10-30T16:32:58;16.52;;;2.72;;
23260;SDS011;11799;47.740;-3.390;2022-10-30T16:35:24;16.73;;;2.30;;
23260;SDS011;11799;47.740;-3.390;2022-10-30T16:37:51;13.23;;;2.25;;
23260;SDS011;11799;47.740;-3.390;2022-10-30T16:40:19;11.43;;;2.00;;
23260;SDS011;11799;47.740;-3.390;2022-10-30T16:42:58;15.32;;;2.83;;
23260;SDS011;11799;47.740;-3.390;2022-10-30T16:48:14;10.63;;;2.20;;
23260;SDS011;11799;47.740;-3.390;2022-10-30T16:53:18;14.55;;;2.55;;
23260;SDS011;11799;47.740;-3.390;2022-10-30T16:55:47;17.02;;;2.28;;
23260;SDS011;11799;47.740;-3.390;2022-10-30T16:58:13;16.65;;;2.92;;
23260;SDS011;11799;47.740;-3.390;2022-10-30T17:00:40;11.25;;;2.10;;
23260;SDS011;11799;47.740;-3.390;2022-10-30T17:03:12;10.57;;;2.20;;
23260;SDS011;11799;47.740;-3.390;2022-10-30T17:05:39;12.52;;;2.85;;
23260;SDS011;11799;47.740;-3.390;2022-10-30T17:10:56;15.25;;;2.85;;
23260;SDS011;11799;47.740;-3.390;2022-10-30T17:13:30;11.27;;;2.72;;
23260;SDS011;11799;47.740;-3.390;2022-10-30T17:15:57;21.10;;;2.95;;
23260;SDS011;11799;47.740;-3.390;2022-10-30T17:18:27;14.65;;;2.42;;
23260;SDS011;11799;47.740;-3.390;2022-10-30T17:21:02;19.85;;;3.45;;
23260;SDS011;11799;47.740;-3.390;2022-10-30T17:23:33;8.48;;;2.22;;
23260;SDS011;11799;47.740;-3.390;2022-10-30T17:26:06;8.93;;;2.25;;
23260;SDS011;11799;47.740;-3.390;2022-10-30T17:28:33;20.55;;;3.17;;
23260;SDS011;11799;47.740;-3.390;2022-10-30T17:36:36;15.60;;;2.85;;
23260;SDS011;11799;47.740;-3.390;2022-10-30T17:39:02;12.15;;;2.45;;
23260;SDS011;11799;47.740;-3.390;2022-10-30T17:41:27;13.60;;;2.67;;
23260;SDS011;11799;47.740;-3.390;2022-10-30T17:43:54;10.10;;;1.92;;
23260;SDS011;11799;47.740;-3.390;2022-10-30T17:46:21;12.10;;;2.50;;
23260;SDS011;11799;47.740;-3.390;2022-10-30T17:48:47;9.45;;;2.35;;
23260;SDS011;11799;47.740;-3.390;2022-10-30T17:51:13;13.77;;;2.38;;
23260;SDS011;11799;47.740;-3.390;2022-10-30T17:53:40;18.17;;;3.53;;